Time;durP1;ratioP1;P1;durP2;ratioP2;P2;SDS_P1;SDS_P2;PMS_P1;PMS_P2;Temp;Humidity;BMP_temperature;BMP_pressure;BME280_temperature;BME280_humidity;BME280_pressure;Samples;Min_cycle;Max_cycle;Signal;HPM_P1;HPM_P2
2023/02/14 00:02:18;;;;;;;;;;;;;;;2.52;72.38;98751.84;4867524;29;19942;-83
2023/02/14 00:04:45;;;;;;;;;;;;;;;2.54;72.32;98749.28;4884121;29;19924;-81
2023/02/14 00:07:14;;;;;;;;;;;;;;;2.53;71.89;98752.72;4864973;29;19932;-81
2023/02/14 00:09:42;;;;;;;;;;;;;;;2.54;72.24;98756.97;4867447;29;19916;-78
2023/02/14 00:12:10;;;;;;;;;;;;;;;2.58;72.14;98760.44;4883563;29;19996;-82
2023/02/14 00:17:25;;;;;;;;;;;;;;;2.60;71.91;98766.47;4853809;29;20035;-82
2023/02/14 00:19:50;;;;;;;;;;;;;;;2.60;71.97;98764.75;4875776;29;19943;-82
2023/02/14 00:22:16;;;;;;;;;;;;;;;2.60;71.70;98763.88;4857662;29;19923;-78
2023/02/14 00:24:42;;;;;;;;;;;;;;;2.59;71.80;98773.28;4869233;29;19959;-80
2023/02/14 00:27:08;;;;;;;;;;;;;;;2.66;71.90;98761.34;4834635;29;19924;-84
2023/02/14 00:29:34;;;;;;;;;;;;;;;2.65;71.47;98773.34;4851571;29;20015;-78
2023/02/14 00:32:00;;;;;;;;;;;;;;;2.66;71.48;98769.91;4850677;29;19986;-80
2023/02/14 00:34:27;;;;;;;;;;;;;;;2.61;71.13;98771.59;4850321;29;20320;-82
2023/02/14 00:36:53;;;;;;;;;;;;;;;2.63;71.58;98775.03;4849089;29;19939;-81
2023/02/14 00:39:19;;;;;;;;;;;;;;;2.60;71.34;98780.16;4852052;29;19924;-79
2023/02/14 00:41:46;;;;;;;;;;;;;;;2.64;71.37;98775.91;4835056;29;19991;-81
2023/02/14 00:44:12;;;;;;;;;;;;;;;2.65;71.41;98781.03;4835407;29;19949;-81
2023/02/14 00:46:38;;;;;;;;;;;;;;;2.66;71.54;98774.19;4850858;29;19924;-79
2023/02/14 00:49:07;;;;;;;;;;;;;;;2.64;71.48;98774.19;4866082;29;20015;-79
2023/02/14 00:51:33;;;;;;;;;;;;;;;2.63;71.12;98782.75;4866780;29;19924;-79
2023/02/14 00:54:03;;;;;;;;;;;;;;;2.62;71.16;98785.31;4849825;29;19928;-81
2023/02/14 00:56:30;;;;;;;;;;;;;;;2.61;71.24;98784.44;4853058;29;20312;-81
2023/02/14 00:58:56;;;;;;;;;;;;;;;2.55;70.70;98785.25;4849944;29;19928;-81
2023/02/14 01:01:23;;;;;;;;;;;;;;;2.54;70.81;98786.09;4850409;29;19935;-82
2023/02/14 01:03:48;;;;;;;;;;;;;;;2.49;71.21;98789.50;4850943;29;19987;-81
2023/02/14 01:06:14;;;;;;;;;;;;;;;2.47;71.17;98784.34;4867192;29;20468;-79
2023/02/14 01:08:40;;;;;;;;;;;;;;;2.52;71.15;98794.66;4849922;29;20194;-81
2023/02/14 01:11:19;;;;;;;;;;;;;;;2.51;71.16;98791.22;4849915;29;20027;-80
2023/02/14 01:13:46;;;;;;;;;;;;;;;2.60;70.90;98792.16;4850001;29;19971;-82
2023/02/14 01:16:14;;;;;;;;;;;;;;;2.55;70.63;98795.53;4849850;29;19931;-80
2023/02/14 01:18:41;;;;;;;;;;;;;;;2.56;71.08;98801.53;4850163;29;19924;-81
2023/02/14 01:21:09;;;;;;;;;;;;;;;2.54;70.75;98792.94;4866063;29;19959;-78
2023/02/14 01:23:35;;;;;;;;;;;;;;;2.48;70.57;98798.91;4849200;29;19924;-82
2023/02/14 01:26:07;;;;;;;;;;;;;;;2.45;70.63;98800.59;4848976;29;19924;-78
2023/02/14 01:28:34;;;;;;;;;;;;;;;2.40;71.15;98801.41;4850138;29;19932;-79
2023/02/14 01:31:06;;;;;;;;;;;;;;;2.42;70.96;98809.13;4833986;29;19924;-82
2023/02/14 01:33:35;;;;;;;;;;;;;;;2.41;70.95;98807.41;4866227;29;20004;-79
2023/02/14 01:36:01;;;;;;;;;;;;;;;2.41;71.21;98815.97;4833213;29;20316;-80
2023/02/14 01:38:27;;;;;;;;;;;;;;;2.43;70.69;98808.25;4851743;29;19924;-79
2023/02/14 01:40:55;;;;;;;;;;;;;;;2.46;71.29;98823.69;4870841;29;19924;-83
2023/02/14 01:43:21;;;;;;;;;;;;;;;2.50;70.80;98817.75;4854383;29;20010;-80
2023/02/14 01:45:47;;;;;;;;;;;;;;;2.48;70.71;98816.03;4854392;29;19931;-83
2023/02/14 01:48:14;;;;;;;;;;;;;;;2.45;70.40;98824.53;4838910;29;20333;-82
2023/02/14 01:50:42;;;;;;;;;;;;;;;2.46;70.83;98815.16;4838440;29;19928;-83
2023/02/14 01:53:12;;;;;;;;;;;;;;;2.47;70.92;98822.84;4836694;29;20450;-81
2023/02/14 01:55:42;;;;;;;;;;;;;;;2.52;71.13;98826.31;4854467;29;19924;-79
2023/02/14 01:58:10;;;;;;;;;;;;;;;2.52;71.04;98823.75;4853984;29;19971;-82
2023/02/14 02:03:24;;;;;;;;;;;;;;;2.44;70.75;98821.97;4870396;29;19931;-82
2023/02/14 02:05:53;;;;;;;;;;;;;;;2.47;71.09;98830.56;4852716;29;19962;-82
2023/02/14 02:08:21;;;;;;;;;;;;;;;2.42;70.67;98824.56;4839900;29;19924;-77
2023/02/14 02:10:51;;;;;;;;;;;;;;;2.43;70.87;98826.25;4854567;29;19928;-79
2023/02/14 02:13:23;;;;;;;;;;;;;;;2.43;70.94;98827.97;4855682;29;19960;-82
2023/02/14 02:15:50;;;;;;;;;;;;;;;2.46;71.13;98828.00;4854718;29;20003;-79
2023/02/14 02:18:39;;;;;;;;;;;;;;;2.46;71.00;98828.84;4854548;29;19975;-79
2023/02/14 02:21:34;;;;;;;;;;;;;;;2.44;71.24;98821.97;4832168;29;19986;-82
2023/02/14 02:24:12;;;;;;;;;;;;;;;2.42;70.94;98819.41;4846114;29;19972;-81
2023/02/14 02:26:47;;;;;;;;;;;;;;;2.34;70.23;98819.31;4871230;29;19931;-82
2023/02/14 02:29:32;;;;;;;;;;;;;;;2.30;70.99;98832.13;4853506;29;19979;-80
2023/02/14 02:32:17;;;;;;;;;;;;;;;2.28;71.04;98827.00;4869596;29;19927;-80
2023/02/14 02:34:55;;;;;;;;;;;;;;;2.23;71.14;98834.63;4853974;29;19928;-78
2023/02/14 02:37:28;;;;;;;;;;;;;;;2.22;71.07;98832.06;4853289;29;19924;-80
2023/02/14 02:40:14;;;;;;;;;;;;;;;2.22;71.15;98834.63;4853096;29;20018;-82
2023/02/14 02:42:49;;;;;;;;;;;;;;;2.20;70.64;98828.63;4862794;29;19928;-79
2023/02/14 02:45:18;;;;;;;;;;;;;;;2.18;71.22;98830.31;4832309;29;19931;-81
2023/02/14 02:47:52;;;;;;;;;;;;;;;2.15;70.54;98820.88;4846321;29;19924;-80
2023/02/14 02:53:12;;;;;;;;;;;;;;;2.24;71.08;98827.81;4848415;29;19931;-82
2023/02/14 02:58:47;;;;;;;;;;;;;;;2.26;70.71;98838.94;4813836;29;19928;-81
2023/02/14 03:01:18;;;;;;;;;;;;;;;2.19;70.96;98832.03;4828938;29;19928;-80
2023/02/14 03:06:30;;;;;;;;;;;;;;;2.18;70.94;98831.19;4863209;29;20418;-82
2023/02/14 03:08:57;;;;;;;;;;;;;;;2.21;70.53;98822.63;4831969;29;19928;-81
2023/02/14 03:11:24;;;;;;;;;;;;;;;2.17;70.49;98831.16;4846713;29;20031;-82
2023/02/14 03:14:07;;;;;;;;;;;;;;;2.16;71.01;98832.00;4837428;29;20396;-82
2023/02/14 03:16:51;;;;;;;;;;;;;;;2.19;70.71;98832.91;4853604;29;19924;-82
2023/02/14 03:19:24;;;;;;;;;;;;;;;2.31;70.48;98839.88;4834323;29;19925;-81
2023/02/14 03:21:55;;;;;;;;;;;;;;;2.38;70.81;98844.19;4835618;29;19924;-82
2023/02/14 03:24:24;;;;;;;;;;;;;;;2.45;70.67;98849.38;4845576;29;19979;-81
2023/02/14 03:26:58;;;;;;;;;;;;;;;2.46;70.37;98844.25;4843166;29;19988;-83
2023/02/14 03:29:36;;;;;;;;;;;;;;;2.48;70.78;98849.41;4869773;29;20011;-82
2023/02/14 03:32:18;;;;;;;;;;;;;;;2.43;69.92;98849.34;4838861;29;19931;-84
2023/02/14 03:34:48;;;;;;;;;;;;;;;2.36;69.87;98851.00;4852798;29;19962;-83
2023/02/14 03:37:21;;;;;;;;;;;;;;;2.26;70.30;98850.06;4837657;29;19984;-83
2023/02/14 03:40:00;;;;;;;;;;;;;;;2.23;70.36;98860.31;4836902;29;19924;-82
2023/02/14 03:42:30;;;;;;;;;;;;;;;2.19;70.22;98865.41;4852949;29;20026;-83
2023/02/14 03:44:58;;;;;;;;;;;;;;;2.23;70.54;98867.16;4853314;29;19927;-81
2023/02/14 03:47:30;;;;;;;;;;;;;;;2.28;70.59;98873.19;4870064;29;19934;-83
2023/02/14 03:50:03;;;;;;;;;;;;;;;2.32;70.72;98874.09;4839107;29;19936;-84
2023/02/14 03:52:36;;;;;;;;;;;;;;;2.31;70.43;98868.09;4839084;29;19924;-81
2023/02/14 03:55:14;;;;;;;;;;;;;;;2.20;70.46;98862.88;4854372;29;20407;-85
2023/02/14 03:57:48;;;;;;;;;;;;;;;2.07;70.46;98863.56;4869359;29;19939;-84
2023/02/14 04:00:17;;;;;;;;;;;;;;;1.99;70.72;98866.06;4870760;29;19954;-82
2023/02/14 04:02:49;;;;;;;;;;;;;;;1.93;70.64;98865.97;4857969;29;19928;-84
2023/02/14 04:05:23;;;;;;;;;;;;;;;1.96;70.88;98871.16;4855113;29;19995;-84
2023/02/14 04:07:56;;;;;;;;;;;;;;;1.99;70.47;98885.75;4868898;29;20143;-82
2023/02/14 04:10:29;;;;;;;;;;;;;;;2.02;70.96;98889.19;4869527;29;20042;-82
2023/02/14 04:12:58;;;;;;;;;;;;;;;2.13;70.85;98884.16;4844802;29;19928;-82
2023/02/14 04:15:31;;;;;;;;;;;;;;;2.19;70.80;98876.53;4860029;29;19959;-84
2023/02/14 04:20:49;;;;;;;;;;;;;;;2.16;70.45;98884.22;4843853;29;19928;-81
2023/02/14 04:23:22;;;;;;;;;;;;;;;2.19;70.33;98885.94;4857284;29;19924;-84
2023/02/14 04:25:49;;;;;;;;;;;;;;;2.26;70.79;98887.72;4841365;29;19971;-83
2023/02/14 04:28:19;;;;;;;;;;;;;;;2.30;70.79;98893.75;4833741;29;19931;-83
2023/02/14 04:31:32;;;;;;;;;;;;;;;2.29;70.09;98897.16;4849799;29;19929;-83
2023/02/14 04:33:58;;;;;;;;;;;;;;;2.32;70.81;98902.31;4815532;29;19971;-81
2023/02/14 04:36:24;;;;;;;;;;;;;;;2.36;70.50;98899.78;4848925;29;20026;-83
2023/02/14 04:38:59;;;;;;;;;;;;;;;2.33;70.23;98907.47;4838665;29;19924;-81
2023/02/14 04:41:25;;;;;;;;;;;;;;;2.35;70.64;98910.91;4836769;29;20001;-84
2023/02/14 04:43:50;;;;;;;;;;;;;;;2.44;70.90;98912.72;4854893;29;19924;-82
2023/02/14 04:46:19;;;;;;;;;;;;;;;2.45;70.22;98906.72;4828617;29;19928;-83
2023/02/14 04:48:45;;;;;;;;;;;;;;;2.41;70.42;98902.44;4849426;29;19925;-84
2023/02/14 04:51:14;;;;;;;;;;;;;;;2.28;69.95;98906.59;4844150;29;19935;-82
2023/02/14 04:53:43;;;;;;;;;;;;;;;2.22;70.37;98915.06;4839221;29;19978;-83
2023/02/14 04:56:09;;;;;;;;;;;;;;;2.24;70.44;98915.09;4853629;29;19924;-83
2023/02/14 04:58:35;;;;;;;;;;;;;;;2.28;70.38;98919.41;4838048;29;19935;-82
2023/02/14 05:01:03;;;;;;;;;;;;;;;2.28;70.58;98921.09;4851182;29;19931;-85
2023/02/14 05:03:29;;;;;;;;;;;;;;;2.32;70.49;98926.28;4868242;29;19924;-82
2023/02/14 05:05:55;;;;;;;;;;;;;;;2.39;70.16;98930.66;4855500;29;19958;-84
2023/02/14 05:08:21;;;;;;;;;;;;;;;2.41;70.42;98936.66;4837196;29;19971;-82
2023/02/14 05:18:29;;;;;;;;;;;;;;;2.71;70.28;98942.06;4830984;29;19929;-85
2023/02/14 05:21:11;;;;;;;;;;;;;;;2.81;70.27;98951.59;4830145;29;20976;-83
2023/02/14 05:30:58;;;;;;;;;;;;;;;2.95;70.23;98967.16;4840922;29;19935;-82
2023/02/14 05:34:05;;;;;;;;;;;;;;;2.95;69.29;98964.59;4827833;29;19920;-82
2023/02/14 05:37:16;;;;;;;;;;;;;;;3.09;69.42;98966.41;4789282;29;19942;-83
2023/02/14 05:40:19;;;;;;;;;;;;;;;3.35;69.84;98964.00;4736341;30;19994;-84
2023/02/14 05:42:59;;;;;;;;;;;;;;;3.66;70.39;98958.19;4735321;30;19926;-83
2023/02/14 05:46:17;;;;;;;;;;;;;;;;;;;;;
2023/02/14 05:51:56;;;;;;;;;;;;;;;3.69;69.18;98968.50;4790714;30;19982;-85
2023/02/14 05:54:23;;;;;;;;;;;;;;;3.64;69.08;98963.34;4790644;29;19925;-83
2023/02/14 06:00:57;;;;;;;;;;;;;;;3.53;69.16;98967.59;4767243;30;19989;-81
2023/02/14 06:03:26;;;;;;;;;;;;;;;3.50;69.13;98976.13;4796448;29;19955;-83
2023/02/14 06:09:20;;;;;;;;;;;;;;;3.45;68.71;98970.06;4870819;29;19930;-81
2023/02/14 06:12:27;;;;;;;;;;;;;;;3.43;69.05;98957.22;4827246;29;19928;-80
2023/02/14 06:15:13;;;;;;;;;;;;;;;3.53;68.70;98965.00;4857205;29;19934;-81
2023/02/14 06:17:51;;;;;;;;;;;;;;;3.62;68.73;98962.47;4837782;29;19928;-81
2023/02/14 06:20:23;;;;;;;;;;;;;;;3.64;68.81;98965.06;4872892;29;19930;-80
2023/02/14 06:22:55;;;;;;;;;;;;;;;3.63;68.40;98969.34;4845957;29;19928;-82
2023/02/14 06:25:28;;;;;;;;;;;;;;;3.51;68.08;98975.28;4854749;29;19972;-82
2023/02/14 06:27:56;;;;;;;;;;;;;;;3.43;68.76;98977.78;4837637;29;20308;-81
2023/02/14 06:34:06;;;;;;;;;;;;;;;3.51;68.47;98983.00;4815555;29;19928;-81
2023/02/14 06:36:35;;;;;;;;;;;;;;;3.62;68.66;98980.47;4852877;29;20026;-83
2023/02/14 06:39:11;;;;;;;;;;;;;;;3.66;67.72;98984.81;4869176;29;20073;-82
2023/02/14 06:41:42;;;;;;;;;;;;;;;3.75;68.63;98981.41;4852333;29;19924;-82
2023/02/14 06:44:11;;;;;;;;;;;;;;;3.94;68.54;98986.66;4852201;29;19928;-82
2023/02/14 06:46:44;;;;;;;;;;;;;;;4.05;68.36;98991.00;4867985;29;19924;-82
2023/02/14 06:49:31;;;;;;;;;;;;;;;4.11;67.91;98992.75;4853066;29;19924;-81
2023/02/14 06:51:57;;;;;;;;;;;;;;;4.14;68.43;98997.06;4851692;29;19934;-79
2023/02/14 06:54:23;;;;;;;;;;;;;;;4.19;68.22;99003.94;4849490;29;20019;-82
2023/02/14 06:57:09;;;;;;;;;;;;;;;4.26;68.45;99004.00;4863513;29;20010;-82
2023/02/14 06:59:36;;;;;;;;;;;;;;;4.31;67.30;99000.56;4831888;29;20380;-83
2023/02/14 07:02:02;;;;;;;;;;;;;;;4.42;67.91;99010.91;4830262;29;19931;-82
2023/02/14 07:04:31;;;;;;;;;;;;;;;4.53;67.78;99000.63;4832854;29;19979;-81
2023/02/14 07:07:00;;;;;;;;;;;;;;;4.65;67.54;99016.13;4864240;29;20018;-81
2023/02/14 07:09:26;;;;;;;;;;;;;;;4.76;67.46;99012.72;4836667;29;19928;-83
2023/02/14 07:11:52;;;;;;;;;;;;;;;4.71;66.98;99006.69;4846832;29;20438;-81
2023/02/14 07:14:18;;;;;;;;;;;;;;;4.66;67.89;99012.69;4863264;29;19931;-82
2023/02/14 07:16:55;;;;;;;;;;;;;;;4.61;66.93;99023.84;4864740;29;19924;-85
2023/02/14 07:19:25;;;;;;;;;;;;;;;4.51;65.88;99025.53;4850295;29;19928;-82
2023/02/14 07:21:51;;;;;;;;;;;;;;;4.50;66.52;99029.84;4834001;29;19924;-82
2023/02/14 07:24:17;;;;;;;;;;;;;;;4.44;67.19;99034.97;4848375;29;19923;-84
2023/02/14 07:26:46;;;;;;;;;;;;;;;4.49;67.14;99029.81;4838083;29;19924;-80
2023/02/14 07:29:12;;;;;;;;;;;;;;;4.52;67.32;99024.69;4846558;29;19932;-82
2023/02/14 07:31:38;;;;;;;;;;;;;;;4.56;66.57;99035.84;4846032;29;19929;-82
2023/02/14 07:34:29;;;;;;;;;;;;;;;4.63;67.06;99035.03;4857476;29;19928;-83
2023/02/14 07:37:11;;;;;;;;;;;;;;;4.60;66.13;99035.00;4859491;29;19924;-84
2023/02/14 07:39:40;;;;;;;;;;;;;;;4.25;66.50;99005.69;4846687;29;20058;-83
2023/02/14 07:42:11;;;;;;;;;;;;;;;4.46;66.57;99046.13;4878919;29;20337;-83
2023/02/14 07:44:38;;;;;;;;;;;;;;;4.47;66.53;99053.00;4830138;29;19929;-82
2023/02/14 07:47:09;;;;;;;;;;;;;;;4.50;66.62;99053.03;4846095;29;20006;-82
2023/02/14 07:49:55;;;;;;;;;;;;;;;4.53;66.81;99057.31;4849618;29;20010;-84
2023/02/14 07:52:28;;;;;;;;;;;;;;;4.52;66.62;99053.03;4851837;29;19939;-83
2023/02/14 07:55:43;;;;;;;;;;;;;;;4.54;66.71;99064.19;4866210;29;20452;-80
2023/02/14 08:01:05;;;;;;;;;;;;;;;4.96;66.28;99066.91;4847106;29;19932;-82
2023/02/14 08:03:31;;;;;;;;;;;;;;;5.15;66.60;99064.38;4846914;29;19935;-84
2023/02/14 08:06:05;;;;;;;;;;;;;;;5.34;66.46;99068.69;4819949;29;20436;-82
2023/02/14 08:12:57;;;;;;;;;;;;;;;5.43;65.82;99032.53;4845636;29;19988;-84
2023/02/14 08:18:21;;;;;;;;;;;;;;;5.39;64.96;99079.88;4843375;29;20341;-82
2023/02/14 08:20:48;;;;;;;;;;;;;;;5.04;64.47;99078.09;4838990;29;20472;-83
2023/02/14 08:23:14;;;;;;;;;;;;;;;5.11;65.89;99077.25;4825830;29;20689;-81
2023/02/14 08:25:40;;;;;;;;;;;;;;;5.36;65.62;99086.72;4834298;29;19924;-82
2023/02/14 08:28:06;;;;;;;;;;;;;;;5.55;65.40;99088.47;4845268;29;19931;-80
2023/02/14 08:30:32;;;;;;;;;;;;;;;5.58;65.64;99091.03;4834616;29;19928;-81
2023/02/14 08:33:00;;;;;;;;;;;;;;;5.64;65.04;99097.06;4849328;29;20456;-81
2023/02/14 08:35:26;;;;;;;;;;;;;;;5.61;65.67;99099.66;4845839;29;19927;-81
2023/02/14 08:37:53;;;;;;;;;;;;;;;5.56;66.13;99104.81;4848425;29;20027;-87
2023/02/14 08:40:19;;;;;;;;;;;;;;;5.61;64.68;99108.28;4836523;29;19931;-83
2023/02/14 08:42:45;;;;;;;;;;;;;;;5.61;66.06;99097.06;4826422;29;19924;-85
2023/02/14 08:45:11;;;;;;;;;;;;;;;5.58;65.33;99105.69;4853058;29;19978;-82
2023/02/14 08:47:49;;;;;;;;;;;;;;;5.57;65.08;99111.72;4817974;29;19924;-81
2023/02/14 08:50:16;;;;;;;;;;;;;;;5.70;64.88;99120.31;4858554;29;19974;-82
2023/02/14 08:52:45;;;;;;;;;;;;;;;6.13;65.80;99119.44;4858052;29;20397;-82
2023/02/14 08:55:16;;;;;;;;;;;;;;;6.47;64.92;99109.03;4820385;29;19924;-86
2023/02/14 08:58:04;;;;;;;;;;;;;;;;;;;;;
2023/02/14 09:00:48;;;;;;;;;;;;;;;8.13;64.45;99116.56;4853959;29;19935;-85
2023/02/14 09:03:38;;;;;;;;;;;;;;;;;;;;;
2023/02/14 09:06:28;;;;;;;;;;;;;;;;;;;;;
2023/02/14 09:09:22;;;;;;;;;;;;;;;7.48;62.79;99121.47;4834277;29;19948;-83
2023/02/14 09:11:57;;;;;;;;;;;;;;;7.43;62.72;99129.22;4835863;29;19928;-85
2023/02/14 09:14:47;;;;;;;;;;;;;;;7.32;62.95;99131.91;4853353;29;19931;-85
2023/02/14 09:17:33;;;;;;;;;;;;;;;;;;;;;
2023/02/14 09:20:23;;;;;;;;;;;;;;;;;;;;;
2023/02/14 09:23:26;;;;;;;;;;;;;;;7.36;62.01;99140.53;4831932;29;19924;-82
2023/02/14 09:29:21;;;;;;;;;;;;;;;7.57;61.71;99144.69;4841156;29;20457;-84
2023/02/14 09:32:20;;;;;;;;;;;;;;;7.62;61.31;99147.22;4846912;29;19964;-84
2023/02/14 09:34:53;;;;;;;;;;;;;;;7.87;61.57;99149.63;4850516;29;19924;-86
2023/02/14 09:37:23;;;;;;;;;;;;;;;7.95;61.42;99153.88;4866651;29;19938;-83
2023/02/14 09:40:19;;;;;;;;;;;;;;;7.87;61.01;99153.09;4846460;29;19963;-84
2023/02/14 09:43:14;;;;;;;;;;;;;;;7.62;60.29;99157.59;4854517;29;19928;-85
2023/02/14 09:45:51;;;;;;;;;;;;;;;7.17;60.18;99140.59;4812602;29;20052;-85
2023/02/14 09:48:24;;;;;;;;;;;;;;;7.73;60.93;99171.34;4846180;29;19924;-83
2023/02/14 09:51:05;;;;;;;;;;;;;;;8.00;60.80;99172.00;4832528;29;20002;-85
2023/02/14 09:53:57;;;;;;;;;;;;;;;7.81;59.85;99176.44;4851223;29;19968;-85
2023/02/14 09:56:49;;;;;;;;;;;;;;;7.38;60.23;99180.19;4816039;29;20000;-84
2023/02/14 10:00:21;;;;;;;;;;;;;;;7.00;59.74;99189.00;4816436;29;19929;-83
2023/02/14 10:03:44;;;;;;;;;;;;;;;6.20;59.30;99201.25;4805416;29;19924;-83
2023/02/14 10:06:17;;;;;;;;;;;;;;;5.64;59.78;99210.66;4787312;29;19964;-84
2023/02/14 10:09:10;;;;;;;;;;;;;;;5.39;60.86;99211.47;4832819;29;19924;-84
2023/02/14 10:11:50;;;;;;;;;;;;;;;5.11;60.47;99216.53;4801081;29;20463;-84
2023/02/14 10:14:25;;;;;;;;;;;;;;;4.94;60.98;99219.03;4821906;29;19924;-84
2023/02/14 10:17:07;;;;;;;;;;;;;;;4.92;62.08;99231.03;4796038;29;19990;-81
2023/02/14 10:19:56;;;;;;;;;;;;;;;4.97;62.71;99226.78;4829596;29;19960;-83
2023/02/14 10:22:44;;;;;;;;;;;;;;;4.97;61.84;99226.78;4827106;29;20029;-83
2023/02/14 10:25:46;;;;;;;;;;;;;;;5.08;62.39;99226.81;4817688;29;19921;-80
2023/02/14 10:28:14;;;;;;;;;;;;;;;5.15;62.68;99232.88;4815643;29;20003;-82
2023/02/14 10:30:58;;;;;;;;;;;;;;;;;;;;;
2023/02/14 10:33:37;;;;;;;;;;;;;;;5.30;62.23;99234.66;4816744;29;19929;-84
2023/02/14 10:36:10;;;;;;;;;;;;;;;5.39;63.06;99236.41;4834297;29;19978;-82
2023/02/14 10:38:44;;;;;;;;;;;;;;;5.39;62.58;99242.44;4828540;29;19991;-82
2023/02/14 10:41:33;;;;;;;;;;;;;;;5.32;62.24;99245.84;4842695;29;19932;-85
2023/02/14 10:44:21;;;;;;;;;;;;;;;5.29;62.00;99235.50;4826757;29;19933;-82
2023/02/14 10:46:53;;;;;;;;;;;;;;;5.25;62.33;99251.81;4823385;29;19956;-82
2023/02/14 10:49:40;;;;;;;;;;;;;;;5.13;63.02;99245.78;4844617;29;20393;-84
2023/02/14 10:52:28;;;;;;;;;;;;;;;4.98;62.14;99258.56;4835892;29;19928;-86
2023/02/14 10:55:10;;;;;;;;;;;;;;;5.02;62.78;99256.91;4823560;29;19925;-82
2023/02/14 10:57:57;;;;;;;;;;;;;;;4.97;62.86;99264.59;4835546;29;19924;-82
2023/02/14 11:00:30;;;;;;;;;;;;;;;5.03;62.86;99272.34;4846577;29;19928;-83
2023/02/14 11:02:57;;;;;;;;;;;;;;;5.19;63.60;99269.84;4832726;29;19928;-81
2023/02/14 11:05:29;;;;;;;;;;;;;;;5.48;62.78;99269.09;4827232;29;19925;-82
2023/02/14 11:07:57;;;;;;;;;;;;;;;5.69;63.05;99265.75;4844099;29;19925;-84
2023/02/14 11:10:28;;;;;;;;;;;;;;;5.80;62.53;99283.84;4842164;29;19997;-84
2023/02/14 11:12:55;;;;;;;;;;;;;;;5.84;62.71;99280.41;4844414;29;19925;-83
2023/02/14 11:15:21;;;;;;;;;;;;;;;5.77;62.67;99283.81;4832519;29;19924;-83
2023/02/14 11:17:47;;;;;;;;;;;;;;;5.48;62.42;99282.00;4835298;29;19931;-82
2023/02/14 11:20:29;;;;;;;;;;;;;;;5.31;62.10;99293.13;4847560;29;19950;-83
2023/02/14 11:22:57;;;;;;;;;;;;;;;5.23;61.95;99290.53;4848430;29;19925;-83
2023/02/14 11:25:26;;;;;;;;;;;;;;;5.10;62.08;99296.47;4857137;29;19935;-82
2023/02/14 11:28:20;;;;;;;;;;;;;;;4.94;61.92;99296.38;4856974;29;19932;-82
2023/02/14 11:30:48;;;;;;;;;;;;;;;4.78;61.62;99313.47;4853922;29;19936;-83
2023/02/14 11:33:49;;;;;;;;;;;;;;;4.71;62.50;99306.56;4859462;29;19935;-82
2023/02/14 11:36:16;;;;;;;;;;;;;;;4.72;62.95;99309.97;4835850;29;19925;-84
2023/02/14 11:38:45;;;;;;;;;;;;;;;4.72;62.26;99315.13;4848172;29;19917;-84
2023/02/14 11:41:12;;;;;;;;;;;;;;;4.79;62.49;99309.19;4857245;29;19980;-84
2023/02/14 11:43:44;;;;;;;;;;;;;;;4.82;61.92;99325.53;4865016;29;19915;-85
2023/02/14 11:46:14;;;;;;;;;;;;;;;4.91;62.42;99311.84;4876439;29;19928;-85
2023/02/14 11:49:00;;;;;;;;;;;;;;;4.95;61.74;99330.78;4854678;29;19928;-82
2023/02/14 11:51:47;;;;;;;;;;;;;;;4.87;61.95;99341.03;4859738;29;19935;-86
2023/02/14 11:54:38;;;;;;;;;;;;;;;4.82;61.58;99328.09;4837460;29;20358;-85
2023/02/14 11:57:22;;;;;;;;;;;;;;;4.77;61.63;99331.50;4844481;29;19931;-85
2023/02/14 11:59:52;;;;;;;;;;;;;;;4.68;61.53;99335.72;4846353;29;19928;-86
2023/02/14 12:02:24;;;;;;;;;;;;;;;4.62;61.21;99346.03;4843850;29;19934;-83
2023/02/14 12:05:00;;;;;;;;;;;;;;;4.60;61.67;99345.13;4862350;29;19932;-82
2023/02/14 12:07:26;;;;;;;;;;;;;;;4.66;60.96;99352.06;4848557;29;20157;-84
2023/02/14 12:10:11;;;;;;;;;;;;;;;4.73;61.74;99345.22;4842965;29;19936;-83
2023/02/14 12:12:47;;;;;;;;;;;;;;;4.85;61.26;99359.91;4831871;29;19936;-85
2023/02/14 12:15:25;;;;;;;;;;;;;;;4.97;61.28;99355.72;4826851;29;19928;-83
2023/02/14 12:18:16;;;;;;;;;;;;;;;5.06;60.45;99359.22;4858805;29;19924;-85
2023/02/14 12:20:51;;;;;;;;;;;;;;;5.23;61.16;99364.47;4845837;29;20269;-84
2023/02/14 12:23:36;;;;;;;;;;;;;;;5.08;60.03;99367.81;4840679;29;19951;-83
2023/02/14 12:26:23;;;;;;;;;;;;;;;5.06;59.93;99377.28;4822242;29;19931;-86
2023/02/14 12:28:54;;;;;;;;;;;;;;;4.97;60.60;99378.94;4851426;29;19975;-86
2023/02/14 12:31:22;;;;;;;;;;;;;;;4.83;60.06;99383.97;4826786;29;19933;-85
2023/02/14 12:33:48;;;;;;;;;;;;;;;4.85;60.70;99401.16;4854918;29;19935;-84
2023/02/14 12:36:30;;;;;;;;;;;;;;;4.81;60.29;99398.56;4837973;29;19958;-86
2023/02/14 12:38:56;;;;;;;;;;;;;;;4.81;59.99;99411.47;4855733;29;20372;-83
2023/02/14 12:41:36;;;;;;;;;;;;;;;4.73;60.23;99409.66;4862137;29;19924;-85
2023/02/14 12:44:07;;;;;;;;;;;;;;;4.70;59.57;99425.09;4848643;29;20006;-83
2023/02/14 12:47:02;;;;;;;;;;;;;;;4.64;59.79;99425.91;4868918;29;19934;-83
2023/02/14 12:49:28;;;;;;;;;;;;;;;4.55;60.12;99426.69;4799990;29;19924;-81
2023/02/14 12:52:14;;;;;;;;;;;;;;;4.36;59.76;99420.50;4853705;29;19936;-84
2023/02/14 12:55:08;;;;;;;;;;;;;;;4.27;59.39;99417.84;4829554;29;20037;-84
2023/02/14 12:57:34;;;;;;;;;;;;;;;4.32;59.90;99434.19;4813913;29;19925;-85
2023/02/14 13:00:17;;;;;;;;;;;;;;;4.40;59.55;99431.72;4849922;29;19966;-83
2023/02/14 13:03:14;;;;;;;;;;;;;;;4.34;59.85;99440.22;4861920;29;19924;-84
2023/02/14 13:05:49;;;;;;;;;;;;;;;4.25;59.57;99446.13;4866844;29;19983;-83
2023/02/14 13:08:36;;;;;;;;;;;;;;;4.25;59.63;99455.59;4852803;29;19924;-85
2023/02/14 13:11:24;;;;;;;;;;;;;;;4.25;58.81;99458.16;4864524;29;19929;-85
2023/02/14 13:14:03;;;;;;;;;;;;;;;4.01;58.58;99462.16;4850681;29;20076;-85
2023/02/14 13:16:29;;;;;;;;;;;;;;;3.94;59.26;99462.94;4862677;29;19928;-83
2023/02/14 13:19:17;;;;;;;;;;;;;;;3.87;59.26;99470.56;4848996;29;19925;-84
2023/02/14 13:21:45;;;;;;;;;;;;;;;3.92;59.36;99471.50;4851011;29;19975;-83
2023/02/14 13:24:28;;;;;;;;;;;;;;;3.90;59.56;99480.06;4836023;29;19932;-85
2023/02/14 13:27:24;;;;;;;;;;;;;;;3.90;59.88;99486.06;4829707;29;19925;-83
2023/02/14 13:37:30;;;;;;;;;;;;;;;3.75;59.15;99503.88;4834359;29;19950;-85
2023/02/14 13:52:59;;;;;;;;;;;;;;;;;;;;;
2023/02/14 14:25:38;;;;;;;;;;;;;;;2.89;59.47;99583.94;4764720;30;19933;-85
2023/02/14 14:37:05;;;;;;;;;;;;;;;2.83;59.53;99601.81;4749517;30;20021;-86
2023/02/14 14:40:10;;;;;;;;;;;;;;;2.81;58.99;99601.78;4747798;30;19930;-84
2023/02/14 14:46:17;;;;;;;;;;;;;;;2.67;59.32;99621.19;4783558;29;20070;-83
2023/02/14 14:48:53;;;;;;;;;;;;;;;2.64;59.36;99632.28;4758368;29;20417;-84
2023/02/14 14:51:41;;;;;;;;;;;;;;;2.67;59.18;99637.47;4780884;29;20000;-86
2023/02/14 14:54:56;;;;;;;;;;;;;;;2.64;59.31;99636.56;4803546;29;19925;-85
2023/02/14 14:57:29;;;;;;;;;;;;;;;2.61;59.54;99639.06;4835868;29;19992;-85
2023/02/14 15:04:16;;;;;;;;;;;;;;;2.66;60.03;99651.16;4845198;29;20021;-84
2023/02/14 15:06:51;;;;;;;;;;;;;;;2.67;59.16;99652.91;4858060;29;20532;-87
2023/02/14 15:09:40;;;;;;;;;;;;;;;2.69;59.81;99653.81;4837136;29;19924;-85
2023/02/14 15:15:39;;;;;;;;;;;;;;;2.64;59.64;99657.13;4778540;29;20039;-85
2023/02/14 15:18:06;;;;;;;;;;;;;;;2.69;60.09;99666.66;4862690;29;19924;-87
2023/02/14 15:20:35;;;;;;;;;;;;;;;2.67;59.85;99676.03;4843934;29;20068;-87
2023/02/14 15:23:03;;;;;;;;;;;;;;;2.68;60.00;99670.06;4841587;29;20285;-85
2023/02/14 15:25:31;;;;;;;;;;;;;;;2.59;60.07;99682.69;4825856;29;19936;-86
2023/02/14 15:27:58;;;;;;;;;;;;;;;2.49;59.59;99678.19;4832358;29;19930;-87
2023/02/14 15:30:45;;;;;;;;;;;;;;;2.45;60.06;99690.09;4839323;29;19968;-86
2023/02/14 15:45:04;;;;;;;;;;;;;;;2.60;59.71;99707.56;4819034;29;20358;-87
2023/02/14 15:47:39;;;;;;;;;;;;;;;2.64;59.94;99719.63;4813708;29;19964;-87
2023/02/14 15:57:07;;;;;;;;;;;;;;;2.56;59.99;99727.19;5148701;23;19932;-89
2023/02/14 16:04:13;;;;;;;;;;;;;;;2.50;60.35;99736.44;4825466;29;19935;-87
2023/02/14 16:07:14;;;;;;;;;;;;;;;2.52;60.71;99738.22;4825849;29;19955;-91
2023/02/14 16:14:31;;;;;;;;;;;;;;;2.43;60.14;99737.13;4795327;29;19967;-87
2023/02/14 16:16:58;;;;;;;;;;;;;;;2.38;60.32;99743.03;4764997;30;19952;-83
2023/02/14 16:24:06;;;;;;;;;;;;;;;2.22;60.53;99758.91;4769055;29;19923;-83
2023/02/14 16:27:07;;;;;;;;;;;;;;;2.17;60.15;99756.25;4823871;29;20007;-85
2023/02/14 16:33:33;;;;;;;;;;;;;;;2.20;60.68;99765.72;4824346;29;20316;-85
2023/02/14 16:39:23;;;;;;;;;;;;;;;2.15;60.39;99765.59;4761653;29;20481;-86
2023/02/14 16:46:51;;;;;;;;;;;;;;;;;;;;;